Time;durP1;ratioP1;P1;durP2;ratioP2;P2;SDS_P1;SDS_P2;PMS_P1;PMS_P2;Temp;Humidity;BMP_temperature;BMP_pressure;BME280_temperature;BME280_humidity;BME280_pressure;Samples;Min_cycle;Max_cycle;Signal;HPM_P1;HPM_P2
2021/01/29 00:02:08;;;;;;;5.55;2.20;;;;;;;12.39;87.77;98288.53;4422626;32;20477;-77
2021/01/29 00:04:34;;;;;;;6.47;2.70;;;;;;;12.40;88.21;98292.88;4424417;32;20037;-74
2021/01/29 00:07:00;;;;;;;5.93;2.17;;;;;;;12.43;88.36;98283.41;4424251;32;20084;-79
2021/01/29 00:09:25;;;;;;;4.03;2.40;;;;;;;12.46;87.90;98279.56;4424223;32;20030;-75
2021/01/29 00:11:51;;;;;;;5.10;2.58;;;;;;;12.46;88.06;98277.53;4424641;32;20034;-77
2021/01/29 00:14:17;;;;;;;5.47;2.42;;;;;;;12.44;87.94;98276.47;4423412;32;20109;-76
2021/01/29 00:16:42;;;;;;;2.50;1.83;;;;;;;12.41;87.60;98281.09;4424194;32;20025;-77
2021/01/29 00:19:08;;;;;;;6.03;2.05;;;;;;;12.40;87.41;98275.97;4422223;32;20092;-75
2021/01/29 00:21:34;;;;;;;4.80;1.90;;;;;;;12.36;87.12;98284.66;4426215;32;20018;-76
2021/01/29 00:23:59;;;;;;;2.42;1.52;;;;;;;12.47;87.38;98281.88;4422119;32;20026;-74
2021/01/29 00:26:25;;;;;;;4.78;2.20;;;;;;;12.43;87.16;98286.22;4428344;32;20093;-74
2021/01/29 00:28:52;;;;;;;10.38;3.08;;;;;;;12.38;86.84;98282.09;4425659;32;20038;-74
2021/01/29 00:31:18;;;;;;;6.45;2.22;;;;;;;12.30;85.62;98283.12;4426330;32;20059;-75
2021/01/29 00:33:44;;;;;;;12.88;3.22;;;;;;;12.31;86.26;98276.97;4423829;32;20454;-79
2021/01/29 00:36:09;;;;;;;11.00;3.83;;;;;;;12.37;85.35;98277.75;4419592;32;20045;-76
2021/01/29 00:38:35;;;;;;;13.10;3.12;;;;;;;12.30;85.62;98278.22;4424570;32;20058;-76
2021/01/29 00:41:01;;;;;;;10.70;3.00;;;;;;;12.35;85.30;98282.34;4423464;32;20033;-76
2021/01/29 00:43:27;;;;;;;15.90;3.47;;;;;;;12.35;84.67;98277.50;4422314;32;20094;-76
2021/01/29 00:45:52;;;;;;;14.98;3.42;;;;;;;12.33;84.43;98274.41;4418416;32;20043;-77
2021/01/29 00:48:18;;;;;;;12.30;4.05;;;;;;;12.33;85.15;98273.66;4419912;32;20166;-75
2021/01/29 00:50:44;;;;;;;12.30;5.30;;;;;;;12.21;85.19;98267.19;4420051;32;20084;-74
2021/01/29 00:53:10;;;;;;;15.07;4.90;;;;;;;12.20;84.62;98271.31;4420098;32;20046;-76
2021/01/29 00:55:36;;;;;;;16.10;5.05;;;;;;;12.24;84.41;98268.25;4428860;32;20052;-77
2021/01/29 00:58:03;;;;;;;19.12;3.87;;;;;;;12.21;85.05;98269.25;4420998;32;20026;-76
2021/01/29 01:00:28;;;;;;;15.20;3.20;;;;;;;12.20;84.82;98271.31;4428858;32;20038;-75
2021/01/29 01:02:54;;;;;;;15.05;4.20;;;;;;;12.21;85.18;98278.47;4422444;32;20050;-76
2021/01/29 01:05:23;;;;;;;19.70;4.45;;;;;;;12.18;84.39;98271.03;4422301;32;20071;-76
2021/01/29 01:07:49;;;;;;;15.27;4.85;;;;;;;12.17;85.34;98261.03;4423098;32;20124;-76
2021/01/29 01:10:16;;;;;;;14.07;4.62;;;;;;;12.05;84.88;98265.09;4428196;32;20052;-75
2021/01/29 01:12:42;;;;;;;16.95;5.32;;;;;;;12.18;85.34;98256.19;4420603;32;20060;-77
2021/01/29 01:15:14;;;;;;;18.15;6.12;;;;;;;12.23;85.21;98270.28;4419890;32;20034;-77
2021/01/29 01:17:41;;;;;;;14.77;5.70;;;;;;;12.26;84.81;98269.25;4421259;32;20404;-77
2021/01/29 01:20:10;;;;;;;26.17;6.32;;;;;;;12.16;84.45;98275.66;4421220;32;20079;-79
2021/01/29 01:22:36;;;;;;;15.85;6.05;;;;;;;12.17;84.51;98280.78;4419597;32;20042;-75
2021/01/29 01:25:02;;;;;;;19.12;6.10;;;;;;;12.10;84.41;98270.75;4421021;32;20056;-76
2021/01/29 01:27:28;;;;;;;19.95;5.95;;;;;;;12.08;84.43;98281.00;4422937;32;20153;-76
2021/01/29 01:29:53;;;;;;;14.10;5.43;;;;;;;12.02;83.60;98274.56;4419980;32;20038;-77
2021/01/29 01:32:19;;;;;;;21.10;5.97;;;;;;;11.99;83.48;98281.22;4428611;32;20100;-76
2021/01/29 01:34:44;;;;;;;18.23;5.68;;;;;;;11.94;82.84;98271.47;4422046;32;20038;-76
2021/01/29 01:37:10;;;;;;;17.30;5.85;;;;;;;11.94;83.22;98273.53;4419782;32;20026;-74
2021/01/29 01:39:36;;;;;;;17.25;5.78;;;;;;;11.82;83.21;98271.94;4424317;32;20061;-76
2021/01/29 01:42:02;;;;;;;12.13;4.53;;;;;;;11.78;83.64;98285.50;4422546;32;20022;-74
2021/01/29 01:44:36;;;;;;;21.90;5.70;;;;;;;12.03;81.16;98282.53;4420645;32;20021;-75
2021/01/29 01:47:20;;;;;;;22.83;5.77;;;;;;;12.10;80.28;98276.38;4422629;32;20086;-75
2021/01/29 01:49:48;;;;;;;23.55;5.22;;;;;;;11.77;81.55;98289.59;4420576;32;20418;-74
2021/01/29 01:52:24;;;;;;;17.42;4.78;;;;;;;11.73;81.81;98292.63;4420514;32;20049;-75
2021/01/29 01:54:58;;;;;;;23.05;5.28;;;;;;;11.78;81.83;98296.75;4423022;32;20034;-76
2021/01/29 01:57:27;;;;;;;20.62;4.57;;;;;;;11.77;82.21;98292.41;4426772;32;20060;-76
2021/01/29 02:00:00;;;;;;;22.20;5.32;;;;;;;11.78;82.43;98296.75;4419976;32;20052;-76
2021/01/29 02:02:30;;;;;;;19.00;5.50;;;;;;;11.79;82.95;98301.87;4421050;32;20034;-73
2021/01/29 02:05:00;;;;;;;20.12;5.28;;;;;;;11.77;83.76;98303.69;4422024;32;20049;-78
2021/01/29 02:10:10;;;;;;;18.10;5.07;;;;;;;12.03;81.72;98295.88;4011418;31;15067970;-75
2021/01/29 02:12:35;;;;;;;23.38;5.70;;;;;;;12.03;81.72;98295.88;4468941;32;20025;-76
2021/01/29 02:15:05;;;;;;;16.83;4.72;;;;;;;11.54;82.16;98291.50;4475622;32;20020;-76
2021/01/29 02:17:46;;;;;;;15.10;4.18;;;;;;;11.57;81.73;98286.91;4472908;32;20049;-76
2021/01/29 02:32:23;;;;;;;15.55;4.32;;;;;;;11.95;79.83;98294.78;3988602;32;15023385;-76
2021/01/29 02:40:29;;;;;;;16.00;4.62;;;;;;;11.84;79.83;98303.19;3988225;32;15022236;-76
2021/01/29 02:45:40;;;;;;;19.62;5.20;;;;;;;12.05;79.79;98302.53;3963799;32;15727406;-77
2021/01/29 02:51:00;;;;;;;14.82;4.35;;;;;;;11.76;79.58;98291.63;3983736;32;15026425;-76
2021/01/29 02:53:37;;;;;;;17.05;4.12;;;;;;;11.70;80.29;98292.91;4447054;32;20163;-77
2021/01/29 02:59:02;;;;;;;20.70;4.70;;;;;;;12.00;78.51;98297.62;4012575;31;15015065;-78
2021/01/29 03:01:37;;;;;;;24.87;4.90;;;;;;;12.00;78.51;98297.62;4474282;32;20130;-77
2021/01/29 03:04:10;;;;;;;26.50;5.03;;;;;;;11.54;79.45;98280.22;4471361;32;20080;-78
2021/01/29 03:06:46;;;;;;;23.17;4.97;;;;;;;11.48;78.97;98287.13;4475465;32;20073;-75
2021/01/29 03:09:22;;;;;;;19.02;4.80;;;;;;;11.35;78.52;98286.78;4471861;32;20069;-78
2021/01/29 03:12:00;;;;;;;20.92;5.03;;;;;;;11.44;78.34;98286.56;4454840;32;20076;-76
2021/01/29 03:17:20;;;;;;;22.73;4.65;;;;;;;11.71;75.81;98300.06;3984475;32;15023347;-78
2021/01/29 03:19:57;;;;;;;15.98;4.37;;;;;;;11.71;75.81;98300.06;4446091;32;20095;-75
2021/01/29 03:22:28;;;;;;;21.95;5.40;;;;;;;11.22;77.28;98297.69;4444003;32;20068;-75
2021/01/29 03:25:02;;;;;;;23.83;5.03;;;;;;;11.19;77.50;98288.22;4446368;32;20520;-77
2021/01/29 03:27:37;;;;;;;16.37;4.90;;;;;;;11.17;76.50;98299.19;4444154;32;20048;-76
2021/01/29 03:30:12;;;;;;;21.00;4.50;;;;;;;11.18;76.69;98288.72;4444638;32;20146;-77
2021/01/29 03:32:39;;;;;;;21.52;4.43;;;;;;;11.10;75.93;98296.84;4443124;32;20044;-75
2021/01/29 03:38:06;;;;;;;20.60;5.00;;;;;;;11.42;74.91;98300.41;4011829;31;15019285;-74
2021/01/29 03:40:32;;;;;;;25.77;5.10;;;;;;;11.42;74.91;98300.41;4472821;32;20078;-77
2021/01/29 03:48:49;;;;;;;18.37;4.05;;;;;;;10.97;74.43;98298.53;3989745;32;15027718;-77
2021/01/29 03:51:55;;;;;;;28.67;5.28;;;;;;;10.85;75.49;98289.25;4441631;32;20029;-76
2021/01/29 03:54:34;;;;;;;28.57;5.00;;;;;;;10.83;75.87;98302.28;4445560;32;20044;-77
2021/01/29 03:57:40;;;;;;;28.45;5.82;;;;;;;10.76;76.19;98303.50;4445971;32;20421;-76
2021/01/29 04:00:18;;;;;;;28.70;6.70;;;;;;;10.83;76.74;98307.91;4445382;32;20026;-75
2021/01/29 04:03:08;;;;;;;25.62;6.90;;;;;;;10.92;76.14;98300.03;4443340;32;20444;-75
2021/01/29 04:05:45;;;;;;;32.30;6.82;;;;;;;10.93;76.79;98301.59;4445566;32;20088;-75
2021/01/29 04:08:21;;;;;;;25.40;6.47;;;;;;;10.99;76.41;98299.59;4445084;32;20129;-78
2021/01/29 04:10:53;;;;;;;29.00;7.78;;;;;;;10.98;76.65;98298.03;4443831;32;20041;-76
2021/01/29 04:13:28;;;;;;;29.92;6.50;;;;;;;10.97;76.75;98293.69;4441893;32;20022;-75
2021/01/29 04:15:54;;;;;;;30.67;4.75;;;;;;;10.98;76.18;98300.84;4440783;32;20034;-76
2021/01/29 04:23:38;;;;;;;23.48;3.80;;;;;;;11.37;74.95;98293.47;3991612;32;15025869;-77
2021/01/29 04:26:11;;;;;;;25.10;3.45;;;;;;;10.89;76.12;98294.66;4442577;32;20025;-77
2021/01/29 04:28:42;;;;;;;19.58;2.87;;;;;;;10.81;75.75;98297.16;4440727;32;20477;-77
2021/01/29 04:31:12;;;;;;;28.65;3.42;;;;;;;10.88;76.34;98293.87;4439372;32;20038;-77
2021/01/29 04:33:43;;;;;;;21.42;3.37;;;;;;;10.84;75.94;98287.72;4439626;32;20042;-77
2021/01/29 04:36:14;;;;;;;17.95;3.33;;;;;;;10.90;76.21;98287.75;4442767;32;20055;-77
2021/01/29 04:38:45;;;;;;;23.00;3.55;;;;;;;10.86;75.49;98301.28;4445099;32;20092;-77
2021/01/29 04:44:02;;;;;;;21.50;4.60;;;;;;;11.26;74.87;98295.44;3961281;32;15727678;-77
2021/01/29 04:58:11;;;;;;;25.10;3.63;;;;;;;11.33;74.07;98294.97;4004709;31;15034562;-77
2021/01/29 05:12:47;;;;;;;26.17;3.25;;;;;;;11.65;73.59;98305.69;3987913;32;15023849;-77
2021/01/29 05:21:37;;;;;;;26.98;3.28;;;;;;;11.79;72.37;98309.59;3990451;32;15022112;-78
2021/01/29 05:24:23;;;;;;;25.48;3.40;;;;;;;11.79;72.37;98309.59;4441536;32;20048;-78
2021/01/29 05:38:38;;;;;;;18.62;3.58;;;;;;;11.93;71.00;98309.41;3991151;32;15022709;-77
2021/01/29 05:41:43;;;;;;;23.62;3.05;;;;;;;11.93;71.00;98309.41;4446141;32;20041;-77
2021/01/29 05:44:38;;;;;;;22.48;3.15;;;;;;;11.48;71.91;98298.38;4445946;32;20423;-77
2021/01/29 05:50:19;;;;;;;21.87;3.92;;;;;;;11.54;71.94;98299.19;3984837;32;15023023;-78
2021/01/29 05:53:04;;;;;;;16.58;3.12;;;;;;;11.51;72.23;98305.84;4442268;32;20036;-78
2021/01/29 06:00:59;;;;;;;19.37;2.90;;;;;;;12.14;70.48;98312.78;3989897;32;15024207;-77
2021/01/29 06:06:44;;;;;;;21.30;3.08;;;;;;;12.06;71.06;98314.59;3992344;32;15023988;-77
2021/01/29 06:09:36;;;;;;;24.37;4.33;;;;;;;12.06;71.06;98314.59;4442897;32;20413;-78
2021/01/29 06:15:08;;;;;;;19.50;3.40;;;;;;;11.83;72.34;98302.44;3985451;32;15030273;-78
2021/01/29 06:23:19;;;;;;;21.92;3.28;;;;;;;11.61;73.42;98296.69;3987831;32;15023010;-77
2021/01/29 06:39:54;;;;;;;25.27;4.93;;;;;;;11.18;75.68;98295.13;3989428;32;15028186;-77
2021/01/29 06:56:09;;;;;;;15.93;3.30;;;;;;;11.15;76.66;98304.56;3989055;32;15024852;-78
2021/01/29 07:04:41;;;;;;;24.25;4.90;;;;;;;11.36;76.72;98322.91;3989078;32;15022486;-77
2021/01/29 07:07:37;;;;;;;23.48;4.80;;;;;;;11.36;76.72;98322.91;4444517;32;20075;-78
2021/01/29 07:13:20;;;;;;;28.27;5.70;;;;;;;11.40;76.31;98317.00;3988901;32;15031255;-78
2021/01/29 07:27:15;;;;;;;26.08;6.05;;;;;;;11.28;76.73;98337.91;4002706;31;15015011;-77
2021/01/29 07:30:09;;;;;;;28.23;5.87;;;;;;;11.28;76.73;98337.91;4451335;32;20491;-77
2021/01/29 07:33:01;;;;;;;26.90;6.00;;;;;;;10.86;77.93;98329.41;4462871;32;20072;-78
2021/01/29 07:35:38;;;;;;;20.83;6.55;;;;;;;10.88;78.16;98343.72;4455706;32;20461;-77
2021/01/29 07:41:03;;;;;;;21.17;5.70;;;;;;;11.49;76.21;98350.62;4006184;31;15015340;-78
2021/01/29 07:43:43;;;;;;;27.67;6.30;;;;;;;11.49;76.21;98350.62;4453565;32;20154;-79
2021/01/29 07:57:49;;;;;;;24.20;7.12;;;;;;;11.50;74.91;98386.72;3984685;32;15024498;-79
2021/01/29 08:05:33;;;;;;;34.55;9.48;;;;;;;11.94;74.92;98409.56;3986731;32;15024698;-79
2021/01/29 08:08:05;;;;;;;28.92;8.43;;;;;;;11.94;74.92;98409.56;4440588;32;20102;-80
2021/01/29 08:10:35;;;;;;;24.25;9.18;;;;;;;11.57;74.81;98408.03;4432748;32;20077;-80
2021/01/29 08:13:23;;;;;;;27.40;8.23;;;;;;;11.49;74.57;98402.09;4441882;32;20082;-77
2021/01/29 08:19:07;;;;;;;24.60;7.60;;;;;;;11.97;72.70;98419.09;4001105;31;15017593;-83
2021/01/29 08:27:30;;;;;;;19.50;6.87;;;;;;;11.87;73.42;98434.62;3986635;32;15024861;-82
2021/01/29 08:38:47;;;;;;;18.52;6.82;;;;;;;11.79;74.09;98450.47;4458983;31;20225;-78
2021/01/29 08:44:16;;;;;;;22.30;5.82;;;;;;;11.44;74.66;98450.69;4001397;31;15018806;-78
2021/01/29 08:47:17;;;;;;;15.30;4.32;;;;;;;11.33;74.92;98452.63;4458991;32;20047;-78
2021/01/29 08:52:43;;;;;;;17.87;4.75;;;;;;;11.50;74.57;98459.16;3986375;32;15028231;-77
2021/01/29 08:58:02;;;;;;;23.60;4.37;;;;;;;12.05;73.42;98482.16;3982104;32;15023151;-77
2021/01/29 09:00:31;;;;;;;24.02;4.95;;;;;;;12.05;73.42;98482.16;4431750;32;20041;-77
2021/01/29 09:03:26;;;;;;;25.90;3.95;;;;;;;11.66;73.56;98476.22;4426011;32;20137;-79
2021/01/29 09:09:03;;;;;;;19.52;3.33;;;;;;;12.39;71.77;98472.59;3985932;32;15024969;-76
2021/01/29 09:19:58;;;;;;;16.00;3.77;;;;;;;12.41;71.12;98489.78;4007729;31;15017784;-79
2021/01/29 09:30:29;;;;;;;20.53;3.90;;;;;;;12.45;71.53;98509.31;3982846;32;15017469;-79
2021/01/29 09:33:00;;;;;;;14.45;2.55;;;;;;;12.45;71.53;98509.31;4430621;32;20336;-79
2021/01/29 09:38:13;;;;;;;13.57;2.80;;;;;;;12.45;71.67;98510.06;3995307;31;15024125;-82
2021/01/29 09:41:02;;;;;;;17.50;2.90;;;;;;;12.45;71.67;98510.06;4444373;32;20406;-82
2021/01/29 09:43:38;;;;;;;16.58;3.28;;;;;;;12.14;71.69;98507.31;4461623;32;20045;-79
2021/01/29 09:46:04;;;;;;;21.12;4.20;;;;;;;12.10;70.98;98518.06;4444280;32;20073;-83
2021/01/29 09:48:31;;;;;;;19.33;3.42;;;;;;;12.08;71.05;98515.75;4460440;32;20082;-81
2021/01/29 09:51:24;;;;;;;19.25;3.92;;;;;;;11.96;71.45;98516.94;4462024;32;20122;-80
2021/01/29 09:53:59;;;;;;;18.37;3.47;;;;;;;12.08;71.44;98520.59;4461560;32;20045;-81
2021/01/29 09:56:30;;;;;;;22.02;3.87;;;;;;;12.26;71.73;98516.63;4461273;32;20052;-80
2021/01/29 09:59:22;;;;;;;24.10;3.75;;;;;;;12.42;70.86;98524.41;4462266;32;20094;-79
2021/01/29 10:02:04;;;;;;;16.70;3.92;;;;;;;12.52;69.46;98537.03;4463538;32;20092;-80
2021/01/29 10:04:55;;;;;;;17.70;3.37;;;;;;;12.48;69.31;98548.53;4461476;32;20040;-82
2021/01/29 10:07:24;;;;;;;21.83;4.07;;;;;;;12.17;69.78;98548.59;4447748;32;20069;-83
2021/01/29 10:10:23;;;;;;;19.52;3.75;;;;;;;12.29;69.98;98541.78;4448897;32;20466;-82
2021/01/29 10:12:59;;;;;;;26.00;3.42;;;;;;;12.27;70.17;98544.31;4457155;32;20025;-79
2021/01/29 10:15:30;;;;;;;20.05;3.30;;;;;;;12.14;70.18;98563.72;4460678;32;20036;-78
2021/01/29 10:20:39;;;;;;;25.33;4.60;;;;;;;12.56;70.10;98583.47;3990186;32;15024305;-78
2021/01/29 10:28:27;;;;;;;18.52;3.80;;;;;;;13.21;67.36;98604.88;3984719;32;15035525;-76
2021/01/29 10:31:05;;;;;;;20.83;3.47;;;;;;;13.21;67.36;98604.88;4430613;32;20076;-79
2021/01/29 10:33:34;;;;;;;18.60;3.28;;;;;;;12.88;66.68;98601.09;4433303;32;20152;-77
2021/01/29 10:36:06;;;;;;;18.10;3.50;;;;;;;12.60;66.73;98597.34;4425967;32;20051;-77
2021/01/29 10:43:56;;;;;;;19.55;3.00;;;;;;;12.90;67.18;98607.78;3986604;32;15023341;-80
2021/01/29 10:47:01;;;;;;;19.73;3.10;;;;;;;12.90;67.18;98607.78;4436508;32;20087;-79
2021/01/29 10:52:22;;;;;;;26.30;4.43;;;;;;;13.05;66.59;98630.22;4006640;31;15019553;-80
2021/01/29 10:54:49;;;;;;;27.52;3.70;;;;;;;13.05;66.59;98630.22;4459900;32;20127;-77
2021/01/29 10:57:33;;;;;;;22.02;3.50;;;;;;;12.62;68.28;98635.09;4440747;32;20524;-84
2021/01/29 11:00:15;;;;;;;21.35;3.17;;;;;;;12.79;67.03;98635.19;4461347;32;20151;-79
2021/01/29 11:02:47;;;;;;;21.92;3.45;;;;;;;12.82;66.77;98645.47;4463867;32;20057;-81
2021/01/29 11:05:22;;;;;;;21.27;2.95;;;;;;;12.66;66.49;98652.53;4461519;32;20029;-80
2021/01/29 11:07:51;;;;;;;25.60;3.10;;;;;;;12.64;66.67;98648.69;4451076;32;20745;-80
2021/01/29 11:10:31;;;;;;;17.92;3.05;;;;;;;12.54;66.29;98647.31;4456309;32;20060;-78
2021/01/29 11:18:35;;;;;;;20.37;3.58;;;;;;;13.23;64.96;98675.72;3990417;32;15023936;-82
2021/01/29 11:21:40;;;;;;;19.30;3.22;;;;;;;13.23;64.96;98675.72;4447108;32;20075;-82
2021/01/29 11:26:55;;;;;;;21.70;3.40;;;;;;;12.94;65.67;98678.09;3974147;32;15025281;-85
2021/01/29 11:29:40;;;;;;;;;;;;;;;12.81;64.54;98670.09;4423534;32;20046;-81
2021/01/29 11:32:29;;;;;;;12.85;3.00;;;;;;;12.57;64.96;98689.41;4423642;32;20458;-83
2021/01/29 11:40:43;;;;;;;17.30;3.45;;;;;;;12.59;65.70;98692.50;3982444;32;15055392;-77
2021/01/29 11:43:31;;;;;;;20.45;2.70;;;;;;;12.60;65.72;98708.16;4440771;32;20129;-81
2021/01/29 11:46:25;;;;;;;17.45;2.97;;;;;;;12.41;66.38;98703.38;4448301;32;20058;-80
2021/01/29 11:49:11;;;;;;;20.10;2.65;;;;;;;12.74;64.95;98707.25;4436272;32;20092;-77
2021/01/29 11:54:39;;;;;;;18.92;2.28;;;;;;;12.44;65.56;98705.97;3963507;32;15724496;-78
2021/01/29 12:02:36;;;;;;;15.20;2.72;;;;;;;13.54;63.18;98732.16;3990424;32;15028576;-81
2021/01/29 12:10:29;;;;;;;10.75;2.67;;;;;;;13.93;62.04;98752.84;3985646;32;15022719;-80
2021/01/29 12:13:06;;;;;;;13.60;2.33;;;;;;;13.93;62.04;98752.84;4437713;32;20037;-80
2021/01/29 12:18:14;;;;;;;11.57;2.80;;;;;;;13.71;61.82;98761.25;3994998;32;15023314;-77
2021/01/29 12:20:42;;;;;;;18.02;3.28;;;;;;;13.71;61.82;98761.25;4443641;32;20013;-77
2021/01/29 12:34:30;;;;;;;17.67;3.12;;;;;;;13.25;64.16;98786.16;3974071;32;15020195;-78
2021/01/29 12:37:19;;;;;;;23.67;2.65;;;;;;;13.25;64.16;98786.16;4434161;32;20029;-79
2021/01/29 12:39:52;;;;;;;20.25;3.12;;;;;;;13.03;64.98;98793.69;4430850;32;20104;-76
2021/01/29 12:42:27;;;;;;;16.50;2.70;;;;;;;12.80;65.24;98792.75;4418434;32;20072;-78
2021/01/29 12:50:49;;;;;;;12.85;2.75;;;;;;;13.02;65.18;98803.44;3992583;32;15027024;-78
2021/01/29 12:53:20;;;;;;;17.48;2.62;;;;;;;12.85;64.99;98816.59;4445099;32;20068;-78
2021/01/29 12:55:55;;;;;;;13.35;2.47;;;;;;;12.97;64.79;98819.03;4444449;32;20130;-76
2021/01/29 12:58:22;;;;;;;;;;;;;;;12.69;64.93;98814.41;4431821;32;20324;-76
2021/01/29 13:00:48;;;;;;;12.48;3.37;;;;;;;12.56;65.19;98816.88;4442065;32;20052;-79
2021/01/29 13:09:13;;;;;;;17.23;2.97;;;;;;;13.03;64.47;98822.72;3984651;32;15024592;-81
2021/01/29 13:17:41;;;;;;;13.15;3.00;;;;;;;13.28;63.67;98815.44;3944959;32;15023937;-81
2021/01/29 13:22:49;;;;;;;10.50;2.67;;;;;;;13.07;64.09;98828.16;3986496;32;15033615;-78
2021/01/29 13:25:24;;;;;;;12.13;2.40;;;;;;;13.07;64.09;98828.16;4442202;32;20033;-78
2021/01/29 13:30:38;;;;;;;10.25;2.33;;;;;;;13.03;63.99;98834.00;3985451;32;15023240;-77
2021/01/29 13:33:26;;;;;;;9.32;1.90;;;;;;;13.03;63.99;98834.00;4441260;32;20461;-80
2021/01/29 13:36:15;;;;;;;15.23;2.87;;;;;;;12.68;64.97;98821.34;4425990;32;20026;-77
2021/01/29 13:38:42;;;;;;;8.63;1.75;;;;;;;12.54;65.79;98820.19;4424113;32;20430;-78
2021/01/29 13:43:45;;;;;;;9.02;1.87;;;;;;;12.67;66.09;98839.56;3985971;32;15023752;-79
2021/01/29 13:46:30;;;;;;;14.60;2.40;;;;;;;12.52;66.14;98838.91;4442213;32;20072;-79
2021/01/29 13:49:36;;;;;;;11.98;2.97;;;;;;;12.35;66.34;98835.91;4441607;32;20141;-76
2021/01/29 13:52:29;;;;;;;10.90;2.03;;;;;;;12.33;66.51;98851.78;4440498;32;20071;-77
2021/01/29 13:55:10;;;;;;;16.77;2.65;;;;;;;12.44;66.57;98843.41;4442790;32;20361;-78
2021/01/29 13:57:44;;;;;;;13.35;2.30;;;;;;;12.57;65.71;98855.88;4440619;32;20086;-79
2021/01/29 14:00:18;;;;;;;14.73;2.10;;;;;;;12.45;65.74;98850.63;4439477;32;20030;-79
2021/01/29 14:05:28;;;;;;;9.73;2.60;;;;;;;12.61;65.85;98847.19;3988103;32;15026070;-77
2021/01/29 14:07:56;;;;;;;15.95;3.58;;;;;;;12.48;65.42;98838.31;4445293;32;20477;-78
2021/01/29 14:10:26;;;;;;;10.43;3.10;;;;;;;12.58;65.45;98846.12;4441843;32;20095;-76
2021/01/29 14:21:21;;;;;;;8.60;1.70;;;;;;;12.65;65.28;98857.00;4001922;31;15021579;-78
2021/01/29 14:23:55;;;;;;;10.75;2.30;;;;;;;12.65;65.28;98857.00;4465202;32;20629;-78
2021/01/29 14:26:35;;;;;;;11.10;2.12;;;;;;;12.34;65.75;98850.50;4460148;32;20510;-78
2021/01/29 14:34:57;;;;;;;9.65;1.77;;;;;;;13.15;64.30;98875.19;3965455;31;15705267;-78
2021/01/29 14:40:46;;;;;;;12.77;2.40;;;;;;;12.88;64.92;98869.25;3982174;32;15028165;-80
2021/01/29 14:43:40;;;;;;;8.57;1.75;;;;;;;12.86;64.53;98880.28;4439099;32;20122;-76
2021/01/29 14:46:42;;;;;;;10.73;2.20;;;;;;;12.83;64.21;98884.09;4438216;32;20038;-81
2021/01/29 14:52:10;;;;;;;9.98;2.10;;;;;;;12.63;65.66;98890.56;3988631;32;15025793;-78
2021/01/29 14:54:45;;;;;;;13.10;2.22;;;;;;;12.33;67.25;98896.91;4437836;32;20033;-82
2021/01/29 14:59:53;;;;;;;13.55;2.50;;;;;;;12.54;68.27;98906.88;3960845;32;15723612;-81
2021/01/29 15:02:34;;;;;;;7.00;2.20;;;;;;;12.23;69.83;98921.63;4438063;32;20041;-78
2021/01/29 15:05:02;;;;;;;10.55;2.35;;;;;;;12.07;70.82;98902.47;4433210;32;20065;-79
2021/01/29 15:07:32;;;;;;;14.43;2.92;;;;;;;12.02;72.11;98908.78;4433916;32;20050;-77
2021/01/29 15:12:41;;;;;;;10.77;2.55;;;;;;;12.01;73.72;98912.88;3984213;32;15027725;-77
2021/01/29 15:18:01;;;;;;;8.17;2.40;;;;;;;12.30;72.40;98924.03;4004568;31;15018693;-77
2021/01/29 15:23:32;;;;;;;7.25;2.33;;;;;;;12.22;72.31;98933.41;3990357;32;15039910;-76
2021/01/29 15:28:44;;;;;;;12.85;2.42;;;;;;;12.40;71.39;98936.72;3987933;32;15028517;-77
2021/01/29 15:36:26;;;;;;;8.05;2.00;;;;;;;12.12;70.17;98923.53;3984467;32;15022565;-79
2021/01/29 15:54:40;;;;;;;11.73;2.15;;;;;;;11.72;70.96;98918.63;3967790;32;15022563;-76
2021/01/29 15:57:14;;;;;;;9.63;2.35;;;;;;;11.41;71.69;98919.16;4424320;32;20073;-77
2021/01/29 16:04:54;;;;;;;10.75;2.35;;;;;;;11.73;71.40;98942.72;3987345;32;15025148;-78
2021/01/29 16:07:25;;;;;;;16.83;2.78;;;;;;;11.73;71.40;98942.72;4445399;32;20133;-77
2021/01/29 16:10:09;;;;;;;10.02;2.60;;;;;;;11.43;72.10;98946.81;4440723;32;20118;-78
2021/01/29 16:20:48;;;;;;;9.63;2.20;;;;;;;12.15;69.34;98945.12;4001678;31;15018520;-78
2021/01/29 16:25:59;;;;;;;13.98;2.45;;;;;;;12.27;70.05;98939.13;4011335;31;15019312;-78
2021/01/29 16:28:26;;;;;;;11.07;2.40;;;;;;;12.31;69.68;98942.50;4474172;32;20109;-78
2021/01/29 16:30:53;;;;;;;12.13;2.72;;;;;;;12.38;69.56;98949.75;4469724;32;20056;-76
2021/01/29 16:33:25;;;;;;;7.80;2.45;;;;;;;12.42;69.04;98947.53;4472264;32;20081;-77
2021/01/29 16:35:55;;;;;;;10.40;2.87;;;;;;;12.48;68.93;98954.75;4466155;32;20061;-77
2021/01/29 16:38:33;;;;;;;11.23;2.83;;;;;;;12.55;68.85;98964.84;4467892;32;20507;-79
2021/01/29 16:41:00;;;;;;;10.25;2.37;;;;;;;12.57;67.79;98970.75;4468478;32;20028;-77
2021/01/29 16:43:29;;;;;;;7.22;2.50;;;;;;;12.62;67.97;98978.53;4463316;32;20508;-78
2021/01/29 16:45:58;;;;;;;9.40;3.40;;;;;;;12.61;68.02;98986.22;4465013;32;20511;-77
2021/01/29 16:48:27;;;;;;;13.57;2.35;;;;;;;12.46;68.78;98988.34;4463579;32;20096;-76
2021/01/29 16:50:58;;;;;;;7.12;2.97;;;;;;;12.31;68.97;98998.12;4470355;32;20037;-76
2021/01/29 16:56:05;;;;;;;5.32;2.47;;;;;;;12.63;65.78;98994.19;3962064;32;15723433;-76
2021/01/29 17:01:14;;;;;;;12.68;3.83;;;;;;;12.34;65.93;98999.97;3984944;32;15026245;-79
2021/01/29 17:03:51;;;;;;;11.43;4.05;;;;;;;12.34;65.93;98999.97;4447291;32;20091;-78
2021/01/29 17:08:57;;;;;;;11.18;2.70;;;;;;;12.22;67.80;99023.66;3987211;32;15021552;-79
2021/01/29 17:11:33;;;;;;;8.35;2.50;;;;;;;12.22;67.80;99023.66;4441517;32;20433;-79
2021/01/29 17:14:11;;;;;;;7.55;1.90;;;;;;;11.89;67.77;99024.72;4441321;32;20025;-77
2021/01/29 17:16:38;;;;;;;8.45;2.12;;;;;;;11.92;66.04;99011.66;4438011;32;20057;-79
2021/01/29 17:19:09;;;;;;;10.85;2.35;;;;;;;11.69;66.42;99009.78;4443804;32;20071;-78
2021/01/29 17:21:38;;;;;;;8.55;2.53;;;;;;;11.69;66.81;99013.34;4441079;32;20065;-75
2021/01/29 17:24:08;;;;;;;11.00;2.45;;;;;;;11.68;66.55;99020.25;4439854;32;20040;-77
2021/01/29 17:26:39;;;;;;;8.73;2.40;;;;;;;11.78;66.49;99018.87;4436874;32;20061;-76
2021/01/29 17:29:09;;;;;;;9.98;2.87;;;;;;;11.90;66.34;99023.44;4437836;32;20461;-78
2021/01/29 17:31:35;;;;;;;15.60;3.70;;;;;;;11.99;66.24;99034.59;4439741;32;20065;-77
2021/01/29 17:34:09;;;;;;;9.48;2.37;;;;;;;12.06;66.47;99039.06;4437205;32;20087;-77
2021/01/29 17:36:44;;;;;;;6.90;2.47;;;;;;;12.15;65.69;99055.84;4441637;32;20391;-78
2021/01/29 17:41:49;;;;;;;9.00;2.78;;;;;;;12.65;65.03;99076.31;4003670;31;15022385;-79
2021/01/29 17:44:25;;;;;;;9.43;2.80;;;;;;;12.65;65.03;99076.31;4473667;32;20033;-77
2021/01/29 17:47:05;;;;;;;8.60;2.70;;;;;;;12.32;66.11;99082.25;4455628;32;20145;-77
2021/01/29 17:49:39;;;;;;;8.88;2.25;;;;;;;12.36;65.45;99085.66;4474535;32;20097;-77
2021/01/29 17:54:53;;;;;;;12.32;3.25;;;;;;;12.25;65.32;99079.06;3962410;32;15724575;-77
2021/01/29 17:57:35;;;;;;;10.68;3.35;;;;;;;11.97;66.15;99073.00;4441160;32;20058;-75
2021/01/29 18:02:59;;;;;;;14.52;3.58;;;;;;;12.14;66.17;99090.94;3984034;32;15024489;-76
2021/01/29 18:05:25;;;;;;;16.35;4.57;;;;;;;12.03;66.44;99091.53;4435301;32;20059;-76
2021/01/29 18:08:08;;;;;;;15.57;3.78;;;;;;;11.90;67.16;99102.34;4441356;32;20081;-78
2021/01/29 18:10:39;;;;;;;15.52;5.53;;;;;;;11.90;66.96;99110.81;4440756;32;20063;-77
2021/01/29 18:13:12;;;;;;;18.02;6.72;;;;;;;11.97;67.22;99112.47;4435615;32;20045;-76
2021/01/29 18:15:45;;;;;;;11.90;4.97;;;;;;;11.94;67.28;99111.38;4443730;32;20045;-76
2021/01/29 18:18:12;;;;;;;21.37;5.32;;;;;;;11.95;67.90;99123.44;4438834;32;20109;-76
2021/01/29 18:20:42;;;;;;;15.20;5.43;;;;;;;12.00;67.89;99131.97;4441790;32;20458;-78
2021/01/29 18:23:12;;;;;;;16.02;4.78;;;;;;;12.09;67.93;99145.97;4438433;32;20029;-79
2021/01/29 18:25:38;;;;;;;8.95;3.50;;;;;;;12.03;68.00;99141.53;4434319;32;20057;-77
2021/01/29 18:28:04;;;;;;;8.95;2.85;;;;;;;12.00;69.66;99154.53;4438673;32;20116;-77
2021/01/29 18:30:30;;;;;;;9.65;3.05;;;;;;;11.72;70.26;99163.78;4439033;32;20478;-79